createdAt,value
2018-07-09T00:01:24.761Z,1.60
2018-07-09T00:03:54.496Z,1.20
2018-07-09T00:06:24.259Z,1.10
2018-07-09T00:08:53.931Z,1.40
2018-07-09T00:11:23.616Z,1.20
2018-07-09T00:13:53.720Z,1.30
2018-07-09T00:16:23.398Z,1.40
2018-07-09T00:18:53.332Z,1.20
2018-07-09T00:21:22.994Z,1.20
2018-07-09T00:23:52.804Z,1.43
2018-07-09T00:26:22.562Z,1.60
2018-07-09T00:28:52.822Z,1.57
2018-07-09T00:31:22.523Z,1.30
2018-07-09T00:33:52.248Z,1.30
2018-07-09T00:36:21.921Z,1.30
2018-07-09T00:38:51.769Z,1.37
2018-07-09T00:41:22.636Z,1.30
2018-07-09T00:43:52.666Z,1.27
2018-07-09T00:46:22.391Z,1.50
2018-07-09T00:48:52.148Z,1.60
2018-07-09T00:51:21.930Z,1.77
2018-07-09T00:53:51.651Z,1.73
2018-07-09T00:56:21.387Z,1.77
2018-07-09T00:58:51.265Z,1.77
2018-07-09T01:01:21.008Z,1.73
2018-07-09T01:03:50.739Z,1.83
2018-07-09T01:06:20.663Z,1.70
2018-07-09T01:08:50.359Z,1.80
2018-07-09T01:11:31.169Z,1.93
2018-07-09T01:14:00.864Z,1.97
2018-07-09T01:16:30.536Z,2.33
2018-07-09T01:19:00.300Z,2.07
2018-07-09T01:21:30.004Z,2.50
2018-07-09T01:23:59.779Z,2.73
2018-07-09T01:26:29.976Z,2.50
2018-07-09T01:29:00.113Z,2.27
2018-07-09T01:31:29.875Z,2.60
2018-07-09T01:33:59.561Z,2.70
2018-07-09T01:36:29.273Z,3.40
2018-07-09T01:38:58.980Z,2.53
2018-07-09T01:41:28.687Z,2.40
2018-07-09T01:43:58.412Z,2.67
2018-07-09T01:46:28.103Z,2.53
2018-07-09T01:48:57.768Z,2.60
2018-07-09T01:51:27.488Z,2.67
2018-07-09T01:53:57.177Z,2.60
2018-07-09T01:56:26.952Z,3.10
2018-07-09T01:58:56.840Z,2.80
2018-07-09T02:01:26.544Z,2.70
2018-07-09T02:03:56.263Z,3.33
2018-07-09T02:06:25.941Z,3.40
2018-07-09T02:08:55.624Z,3.40
2018-07-09T02:11:25.325Z,2.93
2018-07-09T02:13:54.987Z,2.90
2018-07-09T02:16:24.722Z,3.13
2018-07-09T02:18:54.459Z,3.50
2018-07-09T02:21:24.130Z,2.77
2018-07-09T02:23:53.793Z,3.43
2018-07-09T02:26:23.579Z,3.30
2018-07-09T02:28:53.290Z,3.27
2018-07-09T02:31:22.985Z,3.33
2018-07-09T02:33:52.747Z,3.97
2018-07-09T02:36:22.432Z,3.63
2018-07-09T02:38:52.433Z,3.47
2018-07-09T02:41:22.118Z,3.20
2018-07-09T02:43:51.780Z,3.90
2018-07-09T02:46:21.549Z,2.93
2018-07-09T02:48:52.323Z,3.17
2018-07-09T02:51:22.079Z,3.70
2018-07-09T02:53:51.748Z,3.50
2018-07-09T02:56:21.439Z,4.00
2018-07-09T02:58:51.212Z,3.83
2018-07-09T03:01:20.902Z,3.73
2018-07-09T03:03:50.653Z,5.33
2018-07-09T03:06:20.373Z,4.50
2018-07-09T03:08:50.113Z,4.60
2018-07-09T03:11:19.804Z,4.13
2018-07-09T03:13:50.272Z,3.97
2018-07-09T03:16:19.983Z,4.17
2018-07-09T03:18:49.650Z,3.77
2018-07-09T03:21:19.437Z,4.53
2018-07-09T03:23:49.130Z,4.03
2018-07-09T03:26:18.845Z,4.23
2018-07-09T03:28:48.821Z,4.73
2018-07-09T03:31:18.509Z,3.77
2018-07-09T03:33:48.531Z,4.10
2018-07-09T03:36:18.234Z,4.33
2018-07-09T03:38:47.904Z,4.37
2018-07-09T03:41:17.666Z,4.47
2018-07-09T03:43:47.420Z,5.80
2018-07-09T03:46:17.173Z,6.07
2018-07-09T03:48:46.854Z,5.50
2018-07-09T03:51:16.533Z,6.57
2018-07-09T03:53:46.294Z,6.23
2018-07-09T03:56:16.005Z,6.60
2018-07-09T03:58:45.651Z,5.63
2018-07-09T04:01:15.393Z,6.27
2018-07-09T04:03:45.103Z,6.97
2018-07-09T04:06:14.780Z,7.23
2018-07-09T04:08:44.539Z,6.90
2018-07-09T04:11:14.231Z,6.97
2018-07-09T04:13:43.917Z,5.93
2018-07-09T04:16:13.807Z,6.67
2018-07-09T04:18:43.488Z,6.47
2018-07-09T04:21:13.236Z,8.17
2018-07-09T04:23:42.930Z,6.80
2018-07-09T04:26:12.623Z,7.13
2018-07-09T04:28:42.342Z,7.77
2018-07-09T04:31:11.988Z,7.57
2018-07-09T04:33:41.652Z,5.87
2018-07-09T04:36:11.353Z,6.47
2018-07-09T04:38:41.058Z,5.73
2018-07-09T04:41:10.724Z,6.33
2018-07-09T04:43:40.505Z,6.13
2018-07-09T04:46:10.207Z,5.80
2018-07-09T04:48:39.901Z,7.50
2018-07-09T04:51:09.789Z,6.43
2018-07-09T04:53:39.456Z,6.30
2018-07-09T04:56:09.224Z,5.60
2018-07-09T04:58:38.948Z,5.93
2018-07-09T05:01:08.636Z,4.57
2018-07-09T05:03:38.354Z,4.80
2018-07-09T05:06:08.058Z,4.97
2018-07-09T05:08:37.773Z,5.90
2018-07-09T05:11:07.634Z,7.10
2018-07-09T05:13:37.337Z,5.20
2018-07-09T05:16:07.184Z,6.10
2018-07-09T05:18:36.904Z,6.17
2018-07-09T05:21:06.624Z,6.30
2018-07-09T05:23:36.343Z,5.47
2018-07-09T05:26:06.107Z,6.03
2018-07-09T05:28:35.816Z,5.70
2018-07-09T05:31:05.560Z,4.53
2018-07-09T05:33:35.262Z,6.43
2018-07-09T05:36:04.917Z,5.10
2018-07-09T05:38:34.776Z,7.00
2018-07-09T05:41:04.460Z,6.60
2018-07-09T05:43:34.276Z,5.53
2018-07-09T05:46:04.587Z,6.17
2018-07-09T05:48:34.424Z,5.13
2018-07-09T05:51:04.104Z,4.67
2018-07-09T05:53:33.786Z,5.23
2018-07-09T05:56:03.550Z,4.30
2018-07-09T05:58:33.238Z,4.03
2018-07-09T06:01:02.944Z,3.50
2018-07-09T06:03:32.667Z,4.97
2018-07-09T06:06:02.365Z,5.53
2018-07-09T06:08:32.094Z,4.10
2018-07-09T06:11:01.824Z,3.67
2018-07-09T06:13:31.529Z,3.60
2018-07-09T06:16:01.307Z,3.30
2018-07-09T06:18:30.994Z,3.93
2018-07-09T06:21:00.681Z,4.70
2018-07-09T06:23:30.444Z,3.67
2018-07-09T06:26:00.146Z,3.63
2018-07-09T06:28:29.835Z,2.90
2018-07-09T06:30:59.692Z,2.50
2018-07-09T06:33:29.353Z,2.90
2018-07-09T06:35:59.078Z,3.30
2018-07-09T06:38:28.764Z,3.17
2018-07-09T06:40:58.459Z,3.70
2018-07-09T06:43:28.200Z,2.83
2018-07-09T06:45:57.949Z,3.07
2018-07-09T06:48:27.720Z,2.10
2018-07-09T06:50:57.676Z,2.27
2018-07-09T06:53:33.779Z,2.70
2018-07-09T06:56:03.653Z,1.97
2018-07-09T06:58:33.296Z,2.07
2018-07-09T07:01:02.976Z,1.60
2018-07-09T07:03:32.770Z,1.57
2018-07-09T07:06:02.453Z,1.87
2018-07-09T07:08:32.212Z,2.10
2018-07-09T07:11:01.914Z,1.53
2018-07-09T07:13:31.642Z,1.47
2018-07-09T07:16:01.372Z,1.73
2018-07-09T07:18:31.077Z,2.10
2018-07-09T07:21:00.746Z,1.67
2018-07-09T07:23:30.492Z,1.73
2018-07-09T07:26:00.173Z,2.20
2018-07-09T07:28:29.850Z,2.00
2018-07-09T07:30:59.616Z,2.20
2018-07-09T07:33:29.302Z,2.30
2018-07-09T07:35:59.077Z,2.10
2018-07-09T07:38:28.777Z,2.57
2018-07-09T07:40:58.461Z,2.47
2018-07-09T07:43:28.212Z,2.50
2018-07-09T07:45:57.892Z,2.73
2018-07-09T07:48:27.616Z,2.53
2018-07-09T07:50:57.348Z,2.30
2018-07-09T07:53:27.013Z,2.20
2018-07-09T07:55:56.711Z,2.77
2018-07-09T07:58:26.459Z,2.37
2018-07-09T08:00:56.215Z,2.50
2018-07-09T08:03:25.957Z,2.63
2018-07-09T08:05:55.773Z,2.60
2018-07-09T08:08:25.462Z,2.30
2018-07-09T08:10:55.306Z,2.50
2018-07-09T08:13:29.006Z,2.53
2018-07-09T08:15:54.753Z,2.80
2018-07-09T08:18:24.538Z,2.63
2018-07-09T08:20:54.246Z,2.73
2018-07-09T08:23:24.000Z,3.00
2018-07-09T08:25:53.776Z,2.70
2018-07-09T08:28:23.553Z,2.40
2018-07-09T08:30:53.317Z,2.30
2018-07-09T08:33:23.045Z,2.20
2018-07-09T08:35:52.698Z,2.90
2018-07-09T08:38:22.437Z,2.60
2018-07-09T08:40:52.167Z,2.70
2018-07-09T08:43:21.969Z,3.70
2018-07-09T08:45:51.681Z,3.20
2018-07-09T08:48:21.381Z,3.20
2018-07-09T08:50:51.120Z,3.40
2018-07-09T08:53:20.808Z,3.30
2018-07-09T08:55:51.431Z,3.70
2018-07-09T08:58:21.166Z,3.70
2018-07-09T09:00:50.893Z,4.20
2018-07-09T09:03:20.623Z,3.10
2018-07-09T09:05:50.289Z,3.00
2018-07-09T09:08:19.975Z,3.13
2018-07-09T09:10:49.717Z,3.30
2018-07-09T09:13:19.379Z,2.98
2018-07-09T09:15:49.130Z,3.02
2018-07-09T09:18:18.869Z,2.90
2018-07-09T09:20:48.595Z,3.08
2018-07-09T09:23:18.314Z,3.25
2018-07-09T09:25:48.005Z,3.40
2018-07-09T09:28:17.720Z,3.35
2018-07-09T09:30:47.445Z,3.52
2018-07-09T09:33:17.148Z,3.77
2018-07-09T09:35:46.861Z,3.90
2018-07-09T09:38:16.580Z,3.30
2018-07-09T09:40:46.312Z,3.37
2018-07-09T09:43:15.997Z,3.47
2018-07-09T09:45:45.716Z,3.55
2018-07-09T09:48:15.511Z,3.05
2018-07-09T09:50:45.214Z,3.40
2018-07-09T09:53:14.881Z,2.98
2018-07-09T09:55:44.616Z,3.00
2018-07-09T09:58:14.298Z,3.20
2018-07-09T10:00:50.101Z,2.50
2018-07-09T10:03:19.796Z,2.37
2018-07-09T10:05:49.863Z,2.62
2018-07-09T10:08:19.589Z,2.65
2018-07-09T10:10:49.289Z,2.37
2018-07-09T10:13:18.980Z,2.25
2018-07-09T10:15:48.729Z,1.90
2018-07-09T10:18:18.428Z,2.25
2018-07-09T10:20:48.136Z,2.35
2018-07-09T10:23:17.927Z,2.15
2018-07-09T10:25:47.561Z,2.52
2018-07-09T10:28:17.278Z,2.27
2018-07-09T10:30:47.023Z,2.45
2018-07-09T10:33:16.698Z,2.42
2018-07-09T10:35:46.394Z,2.90
2018-07-09T10:38:16.076Z,2.50
2018-07-09T10:40:45.748Z,3.37
2018-07-09T10:43:15.498Z,2.77
2018-07-09T10:45:45.251Z,2.77
2018-07-09T10:48:14.916Z,3.08
2018-07-09T10:50:44.658Z,2.80
2018-07-09T10:53:14.364Z,3.10
2018-07-09T10:55:44.082Z,3.45
2018-07-09T10:58:13.818Z,2.80
2018-07-09T11:00:43.556Z,3.12
2018-07-09T11:03:13.275Z,2.60
2018-07-09T11:05:42.959Z,2.58
2018-07-09T11:08:12.703Z,2.77
2018-07-09T11:10:42.399Z,3.25
2018-07-09T11:13:12.178Z,2.58
2018-07-09T11:15:41.837Z,2.60
2018-07-09T11:18:11.499Z,2.55
2018-07-09T11:20:41.203Z,2.70
2018-07-09T11:23:10.872Z,2.20
2018-07-09T11:25:40.572Z,2.77
2018-07-09T11:28:10.297Z,2.85
2018-07-09T11:30:40.484Z,2.85
2018-07-09T11:33:10.167Z,2.98
2018-07-09T11:35:39.840Z,2.70
2018-07-09T11:38:09.552Z,2.85
2018-07-09T11:40:39.277Z,2.98
2018-07-09T11:43:08.974Z,2.50
2018-07-09T11:45:38.692Z,3.15
2018-07-09T11:48:08.452Z,2.83
2018-07-09T11:50:38.138Z,3.08
2018-07-09T11:53:07.912Z,2.90
2018-07-09T11:55:37.629Z,3.30
2018-07-09T11:58:07.312Z,2.77
2018-07-09T12:00:37.093Z,3.10
2018-07-09T12:03:06.859Z,3.15
2018-07-09T12:05:36.553Z,3.20
2018-07-09T12:08:06.355Z,3.05
2018-07-09T12:10:36.040Z,3.00
2018-07-09T12:13:05.804Z,3.00
2018-07-09T12:15:35.518Z,3.02
2018-07-09T12:18:05.204Z,3.05
2018-07-09T12:20:34.928Z,3.02
2018-07-09T12:23:04.636Z,3.22
2018-07-09T12:25:34.349Z,3.55
2018-07-09T12:28:03.992Z,2.90
2018-07-09T12:30:33.673Z,3.40
2018-07-09T12:33:03.428Z,3.50
2018-07-09T12:35:33.116Z,3.42
2018-07-09T12:38:02.752Z,2.70
2018-07-09T12:40:32.465Z,2.77
2018-07-09T12:43:02.128Z,2.83
2018-07-09T12:45:31.772Z,3.02
2018-07-09T12:48:01.505Z,2.77
2018-07-09T12:50:31.243Z,2.65
2018-07-09T12:53:00.923Z,2.85
2018-07-09T12:55:30.648Z,2.77
2018-07-09T12:58:00.356Z,2.50
2018-07-09T13:00:30.127Z,2.58
2018-07-09T13:02:59.823Z,2.85
2018-07-09T13:05:29.499Z,2.42
2018-07-09T13:07:59.219Z,2.95
2018-07-09T13:10:28.999Z,2.60
2018-07-09T13:12:58.659Z,3.25
2018-07-09T13:15:28.424Z,3.12
2018-07-09T13:17:58.079Z,2.90
2018-07-09T13:20:27.784Z,2.80
2018-07-09T13:22:57.520Z,3.37
2018-07-09T13:25:27.331Z,2.90
2018-07-09T13:27:57.404Z,2.65
2018-07-09T13:30:27.171Z,2.77
2018-07-09T13:32:56.867Z,2.70
2018-07-09T13:35:26.634Z,2.80
2018-07-09T13:37:56.374Z,2.95
2018-07-09T13:40:26.159Z,2.60
2018-07-09T13:42:55.820Z,2.70
2018-07-09T13:45:25.744Z,2.75
2018-07-09T13:47:55.524Z,2.85
2018-07-09T13:50:25.213Z,2.80
2018-07-09T13:52:54.952Z,2.80
2018-07-09T13:55:24.698Z,2.50
2018-07-09T13:57:54.616Z,2.35
2018-07-09T14:00:24.344Z,2.15
2018-07-09T14:02:53.999Z,2.45
2018-07-09T14:05:23.705Z,2.50
2018-07-09T14:07:53.433Z,2.27
2018-07-09T14:10:23.237Z,2.10
2018-07-09T14:12:52.792Z,2.50
2018-07-09T14:15:22.520Z,2.30
2018-07-09T14:17:52.208Z,2.22
2018-07-09T14:20:47.620Z,2.33
2018-07-09T14:23:18.555Z,2.40
2018-07-09T14:25:48.255Z,2.37
2018-07-09T14:28:17.965Z,2.67
2018-07-09T14:30:47.708Z,2.30
2018-07-09T14:33:17.411Z,2.50
2018-07-09T14:35:47.252Z,2.47
2018-07-09T14:38:16.904Z,2.08
2018-07-09T14:40:46.604Z,2.17
2018-07-09T14:43:16.343Z,2.00
2018-07-09T14:45:46.021Z,2.30
2018-07-09T14:48:15.693Z,2.00
2018-07-09T14:50:45.365Z,1.42
2018-07-09T14:53:15.022Z,1.75
2018-07-09T14:55:44.690Z,1.35
2018-07-09T14:58:14.423Z,1.40
2018-07-09T15:00:44.072Z,1.57
2018-07-09T15:03:13.739Z,1.27
2018-07-09T15:05:43.441Z,1.20
2018-07-09T15:08:13.105Z,0.80
2018-07-09T15:10:42.775Z,1.05
2018-07-09T15:13:12.509Z,0.80
2018-07-09T15:15:42.203Z,0.60
2018-07-09T15:18:11.921Z,0.60
2018-07-09T15:20:41.672Z,0.65
2018-07-09T15:23:11.332Z,0.90
2018-07-09T15:25:41.001Z,0.80
2018-07-09T15:28:10.997Z,0.82
2018-07-09T15:30:40.677Z,0.80
2018-07-09T15:33:10.422Z,0.85
2018-07-09T15:35:40.117Z,0.70
2018-07-09T15:38:09.866Z,0.90
2018-07-09T15:40:39.625Z,0.90
2018-07-09T15:43:09.272Z,0.93
2018-07-09T15:45:39.031Z,0.82
2018-07-09T15:48:08.719Z,1.05
2018-07-09T15:50:38.436Z,1.10
2018-07-09T15:53:08.100Z,2.47
2018-07-09T15:55:37.754Z,4.10
2018-07-09T15:58:07.465Z,4.05
2018-07-09T16:00:37.136Z,1.00
2018-07-09T16:03:06.780Z,2.55
2018-07-09T16:05:36.504Z,2.90
2018-07-09T16:08:06.164Z,2.20
2018-07-09T16:10:35.827Z,2.77
2018-07-09T16:13:05.549Z,3.98
2018-07-09T16:15:35.541Z,3.98
2018-07-09T16:18:05.527Z,3.20
2018-07-09T16:20:35.188Z,1.50
2018-07-09T16:23:04.873Z,1.32
2018-07-09T16:25:34.633Z,1.30
2018-07-09T16:28:04.322Z,0.70
2018-07-09T16:30:33.999Z,0.80
2018-07-09T16:33:03.732Z,0.90
2018-07-09T16:35:33.420Z,1.02
2018-07-09T16:38:03.379Z,3.40
2018-07-09T16:40:33.148Z,3.25
2018-07-09T16:43:02.840Z,2.52
2018-07-09T16:45:32.570Z,1.30
2018-07-09T16:48:02.247Z,1.32
2018-07-09T16:50:31.974Z,1.40
2018-07-09T16:53:01.676Z,1.30
2018-07-09T16:55:31.385Z,1.60
2018-07-09T16:58:01.048Z,1.40
2018-07-09T17:00:30.829Z,1.45
2018-07-09T17:03:00.636Z,1.30
2018-07-09T17:05:30.425Z,1.63
2018-07-09T17:08:00.177Z,2.00
2018-07-09T17:10:29.851Z,1.70
2018-07-09T17:12:59.565Z,1.75
2018-07-09T17:15:29.312Z,1.60
2018-07-09T17:17:58.999Z,1.60
2018-07-09T17:20:28.712Z,1.93
2018-07-09T17:22:58.445Z,1.90
2018-07-09T17:25:28.101Z,1.23
2018-07-09T17:27:57.753Z,1.50
2018-07-09T17:30:27.508Z,1.50
2018-07-09T17:32:57.180Z,1.70
2018-07-09T17:35:26.916Z,1.57
2018-07-09T17:37:56.636Z,1.50
2018-07-09T17:40:26.352Z,1.70
2018-07-09T17:42:56.177Z,1.80
2018-07-09T17:45:25.876Z,1.37
2018-07-09T17:47:55.582Z,1.67
2018-07-09T17:50:25.409Z,1.70
2018-07-09T17:52:55.138Z,1.50
2018-07-09T17:55:25.012Z,1.60
2018-07-09T17:57:54.751Z,1.87
2018-07-09T18:00:24.491Z,1.40
2018-07-09T18:02:54.191Z,1.97
2018-07-09T18:05:24.178Z,1.97
2018-07-09T18:07:54.010Z,1.40
2018-07-09T18:10:24.129Z,1.33
2018-07-09T18:12:53.756Z,1.40
2018-07-09T18:15:23.788Z,1.53
2018-07-09T18:17:53.876Z,1.00
2018-07-09T18:20:23.595Z,1.20
2018-07-09T18:25:57.015Z,1.27
2018-07-09T18:28:26.677Z,1.17
2018-07-09T18:30:56.395Z,1.47
2018-07-09T18:33:26.083Z,1.50
2018-07-09T18:35:55.772Z,1.10
2018-07-09T18:38:25.763Z,1.37
2018-07-09T18:40:55.685Z,1.47
2018-07-09T18:43:25.396Z,1.10
2018-07-09T18:45:55.055Z,1.40
2018-07-09T18:48:24.796Z,1.10
2018-07-09T18:50:54.863Z,1.33
2018-07-09T18:53:24.775Z,1.23
2018-07-09T18:55:54.504Z,1.60
2018-07-09T18:58:30.944Z,1.50
2018-07-09T19:01:00.854Z,1.47
2018-07-09T19:03:30.521Z,1.40
2018-07-09T19:06:09.232Z,1.73
2018-07-09T19:08:39.016Z,1.50
2018-07-09T19:11:09.129Z,1.30
2018-07-09T19:13:38.853Z,1.73
2018-07-09T19:16:08.577Z,1.70
2018-07-09T19:18:49.300Z,1.60
2018-07-09T19:21:35.215Z,1.40
2018-07-09T19:24:04.671Z,1.70
2018-07-09T19:26:32.995Z,1.70
2018-07-09T19:29:01.333Z,1.50
2018-07-09T19:31:29.668Z,1.70
2018-07-09T19:33:58.736Z,1.40
2018-07-09T19:36:27.009Z,1.60
2018-07-09T19:38:55.332Z,1.60
2018-07-09T19:41:23.620Z,1.60
2018-07-09T19:43:51.888Z,1.30
2018-07-09T19:46:20.214Z,1.37
2018-07-09T19:48:48.495Z,1.53
2018-07-09T19:51:16.779Z,1.60
2018-07-09T19:53:45.084Z,1.77
2018-07-09T19:56:13.358Z,1.50
2018-07-09T19:58:41.640Z,1.47
2018-07-09T20:01:10.044Z,1.30
2018-07-09T20:06:41.246Z,1.50
2018-07-09T20:12:13.536Z,1.33
2018-07-09T20:14:46.896Z,1.37
2018-07-09T20:17:21.293Z,1.03
2018-07-09T20:19:50.084Z,1.50
2018-07-09T20:22:18.375Z,1.23
2018-07-09T20:24:46.689Z,1.30
2018-07-09T20:27:14.961Z,1.50
2018-07-09T20:29:43.248Z,1.17
2018-07-09T20:32:11.573Z,1.60
2018-07-09T20:34:39.848Z,1.30
2018-07-09T20:37:08.123Z,1.23
2018-07-09T20:39:36.460Z,1.33
2018-07-09T20:42:04.747Z,1.50
2018-07-09T20:44:33.036Z,1.67
2018-07-09T20:47:01.355Z,1.30
2018-07-09T20:49:29.648Z,1.17
2018-07-09T20:51:57.920Z,1.33
2018-07-09T20:54:26.232Z,1.20
2018-07-09T20:56:54.497Z,1.57
2018-07-09T20:59:22.937Z,1.33
2018-07-09T21:01:51.266Z,1.23
2018-07-09T21:04:24.588Z,1.37
2018-07-09T21:06:53.245Z,1.30
2018-07-09T21:09:21.528Z,1.10
2018-07-09T21:11:49.797Z,1.80
2018-07-09T21:14:18.135Z,1.13
2018-07-09T21:16:46.420Z,1.30
2018-07-09T21:19:14.685Z,1.10
2018-07-09T21:21:43.009Z,1.57
2018-07-09T21:24:11.280Z,0.97
2018-07-09T21:26:39.576Z,1.60
2018-07-09T21:29:07.880Z,1.40
2018-07-09T21:31:36.159Z,1.60
2018-07-09T21:34:04.491Z,1.43
2018-07-09T21:36:32.821Z,1.20
2018-07-09T21:39:01.107Z,1.30
2018-07-09T21:41:29.396Z,1.40
2018-07-09T21:43:57.707Z,1.30
2018-07-09T21:46:25.972Z,1.43
2018-07-09T21:48:54.239Z,1.63
2018-07-09T21:51:22.552Z,1.20
2018-07-09T21:53:50.824Z,1.43
2018-07-09T21:56:19.104Z,1.30
2018-07-09T21:58:47.598Z,1.80
2018-07-09T22:01:15.894Z,1.80
2018-07-09T22:03:44.160Z,1.23
2018-07-09T22:06:12.475Z,1.57
2018-07-09T22:08:40.787Z,1.77
2018-07-09T22:11:09.040Z,1.30
2018-07-09T22:13:37.368Z,1.60
2018-07-09T22:16:05.639Z,1.27
2018-07-09T22:18:33.912Z,1.60
2018-07-09T22:21:02.221Z,1.47
2018-07-09T22:23:30.480Z,1.43
2018-07-09T22:25:58.745Z,1.53
2018-07-09T22:28:27.076Z,1.63
2018-07-09T22:30:56.829Z,1.77
2018-07-09T22:33:26.499Z,1.63
2018-07-09T22:35:56.192Z,1.57
2018-07-09T22:38:25.877Z,1.70
2018-07-09T22:40:55.543Z,1.53
2018-07-09T22:43:36.061Z,1.40
2018-07-09T22:46:05.740Z,1.60
2018-07-09T22:48:35.402Z,1.47
2018-07-09T22:51:05.414Z,1.60
2018-07-09T22:53:35.028Z,1.47
2018-07-09T22:56:08.588Z,2.20
2018-07-09T22:58:39.396Z,1.87
2018-07-09T23:01:09.175Z,1.70
2018-07-09T23:03:38.846Z,1.60
2018-07-09T23:06:08.526Z,1.80
2018-07-09T23:08:38.275Z,1.40
2018-07-09T23:11:19.216Z,1.70
2018-07-09T23:15:00.126Z,1.50
2018-07-09T23:17:40.809Z,1.40
2018-07-09T23:20:21.573Z,1.83
2018-07-09T23:22:49.847Z,1.97
2018-07-09T23:25:18.128Z,1.90
2018-07-09T23:27:46.452Z,1.93
2018-07-09T23:30:14.724Z,1.63
2018-07-09T23:32:43.005Z,1.60
2018-07-09T23:35:11.324Z,1.60
2018-07-09T23:37:39.598Z,1.83
2018-07-09T23:40:07.885Z,1.70
2018-07-09T23:42:36.203Z,1.90
2018-07-09T23:45:04.472Z,1.77
2018-07-09T23:47:32.762Z,1.33
2018-07-09T23:50:01.060Z,2.00
2018-07-09T23:52:29.336Z,1.90
2018-07-09T23:54:57.607Z,1.63
2018-07-09T23:58:13.239Z,1.90
